createdAt,value
2022-08-18T00:00:40.307Z,21.8
2022-08-18T00:10:40.321Z,21.9
2022-08-18T00:20:40.325Z,21.9
2022-08-18T00:25:40.343Z,22
2022-08-18T00:30:40.333Z,22
2022-08-18T00:40:40.450Z,22.1
2022-08-18T00:45:40.326Z,22.3
2022-08-18T00:55:40.410Z,22.3
2022-08-18T01:00:40.407Z,22.3
2022-08-18T01:15:40.329Z,22.4
2022-08-18T01:25:40.367Z,22.3
2022-08-18T01:30:40.329Z,22.3
2022-08-18T01:41:22.073Z,22.1
2022-08-18T01:45:40.334Z,22
2022-08-18T01:50:40.355Z,22.1
2022-08-18T02:00:40.349Z,22.1
2022-08-18T02:10:40.356Z,22.1
2022-08-18T02:35:40.356Z,22
2022-08-18T02:40:40.357Z,22.1
2022-08-18T02:50:40.368Z,22.2
2022-08-18T02:55:40.353Z,22.2
2022-08-18T03:00:40.363Z,22.2
2022-08-18T03:05:40.381Z,21.9
2022-08-18T03:15:40.375Z,22.1
2022-08-18T03:25:40.376Z,22.2
2022-08-18T03:35:40.374Z,22.2
2022-08-18T03:55:40.380Z,22.3
2022-08-18T04:00:40.390Z,21.9
2022-08-18T04:10:40.390Z,22
2022-08-18T04:20:59.513Z,22
2022-08-18T04:25:40.372Z,22.1
2022-08-18T04:30:40.390Z,22
2022-08-18T04:40:40.383Z,22.1
2022-08-18T04:50:40.395Z,22.1
2022-08-18T04:55:40.432Z,22.2
2022-08-18T05:16:07.036Z,22
2022-08-18T05:20:40.415Z,22
2022-08-18T05:30:40.402Z,22
2022-08-18T05:35:40.398Z,22
2022-08-18T05:40:40.422Z,22
2022-08-18T05:50:40.421Z,21.9
2022-08-18T05:55:41.854Z,22
2022-08-18T06:05:40.409Z,21.9
2022-08-18T06:10:40.415Z,21.9
2022-08-18T06:15:40.411Z,21.9
2022-08-18T06:30:40.423Z,22
2022-08-18T06:35:40.423Z,22
2022-08-18T06:40:40.434Z,21.9
2022-08-18T06:50:41.047Z,21.9
2022-08-18T07:00:40.458Z,21.8
2022-08-18T07:10:40.434Z,21.8
2022-08-18T07:20:40.432Z,21.8
2022-08-18T07:25:40.460Z,21.8
2022-08-18T07:35:40.444Z,21.7
2022-08-18T07:50:58.352Z,21.9
2022-08-18T07:55:40.445Z,21.9
2022-08-18T08:05:40.466Z,21.8
2022-08-18T08:15:40.460Z,22
2022-08-18T08:25:46.813Z,21.9
2022-08-18T08:35:49.146Z,21.9
2022-08-18T08:40:42.900Z,21.9
2022-08-18T08:50:40.459Z,21.8
2022-08-18T09:15:40.466Z,22
2022-08-18T09:25:40.504Z,22.2
2022-08-18T09:35:40.472Z,22.1
2022-08-18T09:45:40.477Z,22.1
2022-08-18T09:55:40.477Z,22
2022-08-18T10:00:40.476Z,22
2022-08-18T10:11:00.977Z,22.2
2022-08-18T10:35:40.493Z,22.3
2022-08-18T10:40:40.502Z,22.3
2022-08-18T10:50:40.508Z,22.3
2022-08-18T11:00:40.521Z,22.3
2022-08-18T11:10:58.255Z,22.2
2022-08-18T11:20:40.535Z,22.3
2022-08-18T11:30:40.516Z,22.2
2022-08-18T11:35:40.522Z,22.2
2022-08-18T11:55:40.532Z,22.3
2022-08-18T12:00:43.028Z,22.2
2022-08-18T12:10:40.545Z,22.3
2022-08-18T12:20:40.527Z,22.2
2022-08-18T12:25:40.555Z,22.1
2022-08-18T12:35:42.031Z,22.2
2022-08-18T12:40:40.544Z,22.4
2022-08-18T12:50:50.087Z,22.4
2022-08-18T12:55:44.037Z,22.5
2022-08-18T13:15:44.386Z,22.4
2022-08-18T13:25:40.571Z,22.3
2022-08-18T13:35:44.607Z,22.2
2022-08-18T13:40:45.524Z,22.2
2022-08-18T13:45:40.552Z,22.1
2022-08-18T13:55:40.568Z,22
2022-08-18T14:05:51.414Z,22
2022-08-18T14:10:40.571Z,22.2
2022-08-18T14:36:05.917Z,21.8
2022-08-18T14:40:41.721Z,21.9
2022-08-18T14:50:44.705Z,22.2
2022-08-18T14:55:40.559Z,22.2
2022-08-18T15:00:53.437Z,22.1
2022-08-18T15:05:40.576Z,22.1
2022-08-18T15:10:40.568Z,22.1
2022-08-18T15:15:51.008Z,22.1
2022-08-18T15:20:40.564Z,21.9
2022-08-18T15:25:40.573Z,21.9
2022-08-18T15:35:44.156Z,22.1
2022-08-18T15:50:40.584Z,21.9
2022-08-18T15:55:40.597Z,22
2022-08-18T16:05:40.585Z,22
2022-08-18T16:10:40.616Z,22.1
2022-08-18T16:20:40.591Z,22.3
2022-08-18T16:25:40.619Z,22.2
2022-08-18T16:30:40.644Z,22.3
2022-08-18T16:40:40.598Z,22.3
2022-08-18T16:45:40.623Z,22.3
2022-08-18T17:10:40.615Z,22
2022-08-18T17:15:40.610Z,22
2022-08-18T17:20:40.626Z,21.9
2022-08-18T17:25:40.629Z,21.8
2022-08-18T17:30:40.624Z,21.9
2022-08-18T17:35:40.630Z,21.9
2022-08-18T17:40:40.634Z,21.9
2022-08-18T17:50:40.636Z,21.9
2022-08-18T18:00:40.639Z,21.9
2022-08-18T18:05:40.640Z,21.8
2022-08-18T18:30:40.675Z,22.1
2022-08-18T18:35:40.660Z,22.2
2022-08-18T18:45:40.690Z,22.2
2022-08-18T18:50:53.039Z,22.3
2022-08-18T19:00:40.689Z,22.3
2022-08-18T19:10:40.694Z,22.2
2022-08-18T19:15:40.698Z,22.3
2022-08-18T19:20:40.698Z,22.3
2022-08-18T19:30:40.716Z,22.2
2022-08-18T19:45:40.682Z,22.4
2022-08-18T19:50:40.695Z,22.3
2022-08-18T20:00:40.781Z,22.2
2022-08-18T20:10:40.702Z,22.2
2022-08-18T20:15:40.707Z,22.2
2022-08-18T20:25:40.829Z,22.1
2022-08-18T20:35:40.706Z,22.1
2022-08-18T20:40:40.713Z,22
2022-08-18T20:50:40.719Z,22
2022-08-18T21:05:40.718Z,22
2022-08-18T21:10:40.732Z,22
2022-08-18T21:15:40.731Z,22
2022-08-18T21:25:40.800Z,22
2022-08-18T21:30:40.738Z,21.9
2022-08-18T21:40:40.725Z,21.7
2022-08-18T21:45:44.632Z,21.9
2022-08-18T21:55:40.762Z,21.9
2022-08-18T22:05:59.141Z,21.8
2022-08-18T22:25:40.732Z,22.3
2022-08-18T22:35:40.746Z,22.3
2022-08-18T22:45:40.747Z,22.1
2022-08-18T22:50:40.751Z,22.2
2022-08-18T22:55:40.741Z,22.3
2022-08-18T23:05:40.736Z,22.3
2022-08-18T23:10:40.749Z,22.4
2022-08-18T23:20:41.001Z,22.4
2022-08-18T23:25:40.749Z,22.4
2022-08-18T23:40:40.756Z,22.2
2022-08-18T23:45:43.588Z,22.3
2022-08-18T23:55:40.757Z,22.3
